Time;durP1;ratioP1;P1;durP2;ratioP2;P2;SDS_P1;SDS_P2;PMS_P1;PMS_P2;Temp;Humidity;BMP_temperature;BMP_pressure;BME280_temperature;BME280_humidity;BME280_pressure;Samples;Min_cycle;Max_cycle;Signal;HPM_P1;HPM_P2
2021/04/07 00:00:43;;;;;;;14.83;6.60;;;;;;;7.15;67.80;97641.85;353942;115;1964403;-72
2021/04/07 00:01:50;;;;;;;15.12;7.29;;;;;;;7.14;67.87;97639.39;351875;113;1962971;-72
2021/04/07 00:02:56;;;;;;;13.17;7.69;;;;;;;7.15;67.83;97639.17;357292;113;1961985;-72
2021/04/07 00:04:01;;;;;;;15.96;8.47;;;;;;;7.16;67.83;97635.42;358139;113;1964034;-72
2021/04/07 00:05:11;;;;;;;16.01;8.19;;;;;;;7.17;67.76;97636.23;358158;113;1964957;-72
2021/04/07 00:06:18;;;;;;;15.86;8.34;;;;;;;7.18;67.79;97635.20;339887;113;1961988;-71
2021/04/07 00:07:23;;;;;;;16.38;9.72;;;;;;;7.19;67.87;97644.88;356792;113;1964941;-72
2021/04/07 00:08:31;;;;;;;17.41;10.61;;;;;;;7.20;67.79;97635.79;356370;113;1961987;-72
2021/04/07 00:09:37;;;;;;;17.69;9.54;;;;;;;7.22;67.70;97644.41;358866;113;1963931;-72
2021/04/07 00:10:44;;;;;;;19.74;11.53;;;;;;;7.23;67.68;97646.06;351867;113;1962016;-72
2021/04/07 00:11:50;;;;;;;21.68;12.31;;;;;;;7.24;67.61;97640.44;356289;113;1963004;-72
2021/04/07 00:12:57;;;;;;;18.29;10.82;;;;;;;7.26;67.63;97640.21;322365;113;2559916;-72
2021/04/07 00:14:06;;;;;;;20.46;11.91;;;;;;;7.25;67.71;97639.41;349608;115;1963996;-73
2021/04/07 00:15:18;;;;;;;18.38;10.87;;;;;;;7.25;67.70;97628.66;334088;115;1961935;-72
2021/04/07 00:16:25;;;;;;;18.93;11.93;;;;;;;7.27;67.60;97642.65;327954;115;2446993;-72
2021/04/07 00:17:31;;;;;;;16.58;10.42;;;;;;;7.27;67.64;97637.27;349176;115;1963012;-72
2021/04/07 00:18:36;;;;;;;16.22;8.26;;;;;;;7.27;67.57;97631.09;355715;113;1963980;-71
2021/04/07 00:19:42;;;;;;;17.48;9.30;;;;;;;7.29;67.54;97633.55;358539;113;1962916;-72
2021/04/07 00:20:48;;;;;;;15.12;8.28;;;;;;;7.29;67.53;97630.87;357066;113;1964927;-73
2021/04/07 00:21:54;;;;;;;12.92;7.67;;;;;;;7.29;67.63;97631.68;331540;113;2443044;-74
2021/04/07 00:23:00;;;;;;;11.33;6.92;;;;;;;7.30;67.57;97635.99;321568;112;1962980;-73
2021/04/07 00:24:05;;;;;;;11.02;5.33;;;;;;;7.30;67.58;97635.99;355495;111;1961951;-72
2021/04/07 00:25:12;;;;;;;14.12;6.86;;;;;;;7.31;67.52;97632.27;357294;111;1963961;-72
2021/04/07 00:26:18;;;;;;;12.79;6.83;;;;;;;7.31;67.60;97632.27;331097;113;2442979;-73
2021/04/07 00:27:26;;;;;;;11.79;5.58;;;;;;;7.32;67.54;97627.71;337437;113;1962019;-72
2021/04/07 00:28:31;;;;;;;11.54;5.92;;;;;;;7.33;67.56;97626.65;358008;113;1962098;-72
2021/04/07 00:29:37;;;;;;;9.56;4.95;;;;;;;7.35;67.57;97627.23;315981;113;2762009;-72
2021/04/07 00:30:44;;;;;;;12.33;5.49;;;;;;;7.34;67.53;97626.42;359735;113;1961998;-72
2021/04/07 00:31:50;;;;;;;10.97;5.18;;;;;;;7.34;67.61;97625.61;354422;113;1962023;-73
2021/04/07 00:32:56;;;;;;;9.41;5.36;;;;;;;7.35;67.67;97627.23;331159;111;2433995;-74
2021/04/07 00:34:02;;;;;;;11.68;5.48;;;;;;;7.34;67.64;97626.42;358339;110;1962001;-72
2021/04/07 00:35:09;;;;;;;14.52;6.71;;;;;;;7.36;67.65;97631.58;357488;113;1962004;-72
2021/04/07 00:36:15;;;;;;;13.01;6.51;;;;;;;7.37;67.74;97633.20;311047;110;2848998;-72
2021/04/07 00:37:21;;;;;;;11.73;6.83;;;;;;;7.36;68.09;97629.70;334383;110;1961986;-73
2021/04/07 00:38:26;;;;;;;13.84;6.58;;;;;;;7.32;68.09;97631.21;358190;113;1961961;-72
2021/04/07 00:39:31;;;;;;;13.02;7.53;;;;;;;7.35;67.89;97628.05;358383;113;1962016;-73
2021/04/07 00:40:36;;;;;;;14.97;6.72;;;;;;;7.38;67.92;97642.88;358100;110;1962017;-72
2021/04/07 00:41:42;;;;;;;14.26;7.06;;;;;;;7.30;68.48;97633.30;358900;110;1961993;-72
2021/04/07 00:42:50;;;;;;;16.02;7.24;;;;;;;7.31;68.18;97632.27;357601;110;1963959;-71
2021/04/07 00:44:04;;;;;;;11.62;6.98;;;;;;;7.29;68.17;97638.92;358443;113;1962045;-72
2021/04/07 00:45:11;;;;;;;13.24;7.38;;;;;;;7.30;67.90;97635.99;358460;110;1963085;-72
2021/04/07 00:46:18;;;;;;;15.20;8.30;;;;;;;7.27;67.88;97639.96;316915;110;2063074;-73
2021/04/07 00:47:23;;;;;;;15.55;9.16;;;;;;;7.22;67.86;97636.34;349916;110;1961891;-73
2021/04/07 00:48:30;;;;;;;14.15;9.04;;;;;;;7.18;67.82;97644.06;357135;110;1962061;-72
2021/04/07 00:49:36;;;;;;;16.22;9.87;;;;;;;7.11;67.91;97646.04;357573;110;1960954;-73
2021/04/07 00:50:42;;;;;;;17.39;9.72;;;;;;;7.07;68.05;97636.83;330435;110;2222876;-72
2021/04/07 00:51:47;;;;;;;15.46;10.24;;;;;;;7.02;68.00;97644.77;341136;110;1961982;-72
2021/04/07 00:52:54;;;;;;;14.59;9.50;;;;;;;6.99;68.25;97634.50;355986;110;1962044;-73
2021/04/07 00:54:01;;;;;;;18.78;10.33;;;;;;;6.90;68.75;97638.56;311361;110;2138858;-73
2021/04/07 00:55:08;;;;;;;18.27;11.19;;;;;;;6.88;68.40;97644.18;357730;111;1962929;-73
2021/04/07 00:56:14;;;;;;;15.83;9.58;;;;;;;6.83;68.83;97636.00;359345;113;1962915;-72
2021/04/07 00:57:21;;;;;;;18.70;10.48;;;;;;;6.79;68.79;97637.50;327569;111;2608935;-72
2021/04/07 00:58:27;;;;;;;16.26;10.11;;;;;;;6.73;69.15;97643.80;356379;112;1962963;-72
2021/04/07 00:59:33;;;;;;;16.73;10.23;;;;;;;6.73;69.11;97646.48;356921;111;1961926;-72
2021/04/07 01:00:43;;;;;;;16.06;10.43;;;;;;;6.68;69.77;97644.48;318705;113;2733965;-72
2021/04/07 01:01:49;;;;;;;16.84;11.02;;;;;;;6.64;70.17;97642.48;310696;115;2799971;-72
2021/04/07 01:02:59;;;;;;;15.77;10.37;;;;;;;6.56;70.28;97651.67;358041;112;1961966;-73
2021/04/07 01:04:05;;;;;;;15.38;9.66;;;;;;;6.52;70.25;97647.84;340208;111;1961946;-71
2021/04/07 01:05:12;;;;;;;16.04;9.22;;;;;;;6.43;70.92;97639.30;360241;111;1964932;-72
2021/04/07 01:06:19;;;;;;;18.51;9.67;;;;;;;6.41;71.20;97653.98;295010;110;2224446;-73
2021/04/07 01:07:24;;;;;;;13.96;8.26;;;;;;;6.46;70.75;97651.44;334761;112;1963044;-72
2021/04/07 01:08:29;;;;;;;13.58;8.09;;;;;;;6.49;70.78;97651.80;355212;113;1961930;-72
2021/04/07 01:09:34;;;;;;;25.47;16.72;;;;;;;6.51;70.62;97654.23;357089;111;1961988;-75
2021/04/07 01:10:44;;;;;;;23.88;14.84;;;;;;;6.52;70.52;97651.33;356916;110;1961946;-72
2021/04/07 01:11:49;;;;;;;24.93;17.59;;;;;;;6.55;70.49;97652.73;355301;113;1962023;-72
2021/04/07 01:12:55;;;;;;;18.26;12.26;;;;;;;6.57;70.28;97658.70;355730;110;1962070;-72
2021/04/07 01:14:03;;;;;;;12.49;7.97;;;;;;;6.59;70.04;97662.78;360709;113;1960979;-72
2021/04/07 01:15:09;;;;;;;23.41;14.53;;;;;;;6.60;70.01;97661.73;297942;111;2179950;-72
2021/04/07 01:16:15;;;;;;;14.11;8.49;;;;;;;6.63;69.85;97660.45;360365;113;1962008;-72
2021/04/07 01:17:20;;;;;;;13.51;7.92;;;;;;;6.62;70.05;97664.19;360142;105;1961889;-72
2021/04/07 01:18:27;;;;;;;12.76;7.78;;;;;;;6.67;69.75;97661.64;350645;114;1962906;-72
2021/04/07 01:19:33;;;;;;;14.26;8.99;;;;;;;6.60;69.93;97659.05;320198;111;2236997;-72
2021/04/07 01:20:40;;;;;;;12.29;7.66;;;;;;;6.55;69.94;97653.55;356051;111;1962092;-73
2021/04/07 01:21:47;;;;;;;15.60;8.01;;;;;;;6.47;70.23;97663.80;356025;111;1961012;-72
2021/04/07 01:23:00;;;;;;;11.06;7.18;;;;;;;6.27;70.63;97643.45;289208;111;2244613;-72
2021/04/07 01:24:09;;;;;;;12.35;7.18;;;;;;;6.26;70.97;97659.75;357765;110;1962032;-72
2021/04/07 01:25:15;;;;;;;9.42;5.78;;;;;;;6.21;70.79;97660.43;354767;111;1962985;-71
2021/04/07 01:26:21;;;;;;;10.38;6.16;;;;;;;6.08;71.34;97661.42;356719;112;1962995;-72
2021/04/07 01:27:27;;;;;;;10.78;6.62;;;;;;;6.14;70.80;97659.72;314983;111;2765272;-71
2021/04/07 01:28:32;;;;;;;11.76;6.89;;;;;;;6.02;71.57;97662.33;328692;111;1960756;-72
2021/04/07 01:29:38;;;;;;;11.45;6.38;;;;;;;6.05;71.43;97661.06;360382;111;1960693;-73
2021/04/07 01:30:46;;;;;;;10.87;6.90;;;;;;;6.02;72.01;97664.20;360077;112;1960738;-71
2021/04/07 01:31:54;;;;;;;10.65;6.63;;;;;;;5.99;72.10;97664.66;294316;111;2221418;-72
2021/04/07 01:32:59;;;;;;;10.74;6.46;;;;;;;6.03;71.91;97665.83;362334;111;1960894;-72
2021/04/07 01:34:06;;;;;;;11.24;6.84;;;;;;;6.04;71.87;97668.30;358083;111;1960736;-72
2021/04/07 01:35:13;;;;;;;11.19;7.02;;;;;;;6.07;71.87;97650.94;359380;111;1962950;-72
2021/04/07 01:36:24;;;;;;;11.17;6.66;;;;;;;6.10;71.63;97661.20;360705;111;1962005;-72
2021/04/07 01:37:34;;;;;;;9.76;6.26;;;;;;;6.11;71.76;97668.19;358033;111;1965005;-72
2021/04/07 01:38:39;;;;;;;10.31;5.85;;;;;;;6.12;71.68;97659.94;358923;111;1961898;-72
2021/04/07 01:39:45;;;;;;;10.28;5.73;;;;;;;6.08;71.89;97658.73;356556;111;1961993;-73
2021/04/07 01:40:54;;;;;;;8.76;5.16;;;;;;;6.12;71.58;97659.13;321120;112;2563989;-72
2021/04/07 01:41:59;;;;;;;7.44;5.19;;;;;;;6.07;71.33;97662.48;356214;112;1962076;-73
2021/04/07 01:43:05;;;;;;;8.37;5.20;;;;;;;6.08;71.13;97655.25;358249;111;1961937;-72
2021/04/07 01:44:14;;;;;;;9.60;4.69;;;;;;;5.98;71.50;97660.32;346284;113;2934041;-73
2021/04/07 01:45:20;;;;;;;10.19;5.13;;;;;;;6.03;71.06;97655.91;353821;113;1962008;-72
2021/04/07 01:46:27;;;;;;;9.11;5.36;;;;;;;5.97;71.07;97653.34;344275;111;2901032;-73
2021/04/07 01:47:34;;;;;;;7.18;4.13;;;;;;;5.94;71.29;97662.64;358083;113;1963077;-71
2021/04/07 01:48:41;;;;;;;8.42;4.82;;;;;;;5.94;71.17;97654.61;356384;111;1962933;-72
2021/04/07 01:49:48;;;;;;;6.97;4.53;;;;;;;5.92;71.27;97664.69;349321;111;1961939;-72
2021/04/07 01:50:53;;;;;;;9.82;4.47;;;;;;;5.88;71.25;97655.48;358843;111;1963014;-73
2021/04/07 01:52:00;;;;;;;8.66;4.81;;;;;;;5.78;71.63;97649.83;358885;111;1961960;-72
2021/04/07 01:53:05;;;;;;;7.49;4.54;;;;;;;5.80;71.51;97655.80;358817;111;1962982;-73
2021/04/07 01:54:13;;;;;;;7.79;4.88;;;;;;;5.83;71.31;97649.98;337692;110;2334024;-72
2021/04/07 01:55:18;;;;;;;7.38;4.31;;;;;;;5.80;71.45;97645.89;358785;113;1964898;-72
2021/04/07 01:56:24;;;;;;;8.88;4.98;;;;;;;5.79;71.40;97638.87;358797;111;1961955;-72
2021/04/07 01:57:30;;;;;;;8.57;4.66;;;;;;;5.82;71.04;97648.33;359560;111;1961986;-73
2021/04/07 01:58:37;;;;;;;7.56;4.34;;;;;;;5.75;71.29;97643.06;359103;113;1962894;-72
2021/04/07 01:59:43;;;;;;;9.26;4.77;;;;;;;5.80;71.19;97639.72;356904;111;1962020;-72
2021/04/07 02:00:51;;;;;;;8.48;4.72;;;;;;;5.80;71.24;97629.81;314884;112;2728004;-72
2021/04/07 02:01:58;;;;;;;9.52;5.04;;;;;;;5.80;71.42;97629.00;332466;111;1962005;-72
2021/04/07 02:03:05;;;;;;;7.29;3.94;;;;;;;5.79;71.41;97632.70;353883;113;1962059;-72
2021/04/07 02:04:12;;;;;;;6.91;3.94;;;;;;;5.73;71.54;97627.20;323574;113;2584055;-72
2021/04/07 02:05:18;;;;;;;8.93;4.79;;;;;;;5.81;71.21;97626.08;357802;111;1961947;-72
2021/04/07 02:06:25;;;;;;;7.99;4.04;;;;;;;5.84;70.77;97624.81;355161;113;1962038;-71
2021/04/07 02:07:31;;;;;;;8.05;4.56;;;;;;;5.78;71.29;97618.50;344875;115;2918026;-72
2021/04/07 02:08:36;;;;;;;7.77;4.28;;;;;;;5.81;71.12;97615.36;332510;113;1961981;-72
2021/04/07 02:09:43;;;;;;;7.24;4.41;;;;;;;5.83;71.18;97609.79;358745;113;1961880;-72
2021/04/07 02:10:50;;;;;;;8.42;4.41;;;;;;;5.85;71.07;97608.52;355611;111;1961974;-72
2021/04/07 02:11:56;;;;;;;9.88;4.51;;;;;;;5.89;70.86;97609.69;342227;113;2904038;-73
2021/04/07 02:13:03;;;;;;;8.11;4.25;;;;;;;5.88;70.76;97600.03;348430;111;1963907;-72
2021/04/07 02:14:11;;;;;;;8.78;4.69;;;;;;;5.86;71.08;97598.62;353630;115;1961942;-72
2021/04/07 02:15:16;;;;;;;10.50;4.68;;;;;;;5.85;71.13;97592.45;333027;111;1961992;-72
2021/04/07 02:16:22;;;;;;;8.53;4.03;;;;;;;5.85;71.10;97600.48;358998;113;1962909;-72
2021/04/07 02:17:27;;;;;;;9.67;4.32;;;;;;;5.84;71.18;97593.47;357661;113;1962960;-72
2021/04/07 02:18:33;;;;;;;8.26;4.66;;;;;;;5.88;71.06;97585.81;358285;111;1962011;-72
2021/04/07 02:19:38;;;;;;;8.30;4.21;;;;;;;5.88;71.09;97585.81;357072;113;1961898;-72
2021/04/07 02:20:43;;;;;;;7.44;3.93;;;;;;;5.89;70.98;97588.25;357735;113;1962934;-72
2021/04/07 02:21:53;;;;;;;9.41;5.16;;;;;;;5.89;70.95;97582.89;351453;115;1961939;-72
2021/04/07 02:22:59;;;;;;;7.42;4.28;;;;;;;5.90;71.05;97579.19;351935;113;1962927;-73
2021/04/07 02:24:06;;;;;;;9.27;4.55;;;;;;;5.93;70.77;97583.28;344928;113;2910933;-72
2021/04/07 02:25:12;;;;;;;7.04;3.63;;;;;;;5.94;70.81;97587.61;344391;113;1964934;-72
2021/04/07 02:26:19;;;;;;;6.75;3.47;;;;;;;5.97;70.32;97586.34;356608;111;1961700;-73
2021/04/07 02:27:26;;;;;;;9.28;4.16;;;;;;;6.01;70.28;97576.81;310373;113;2799003;-73
2021/04/07 02:28:31;;;;;;;7.96;3.98;;;;;;;6.02;69.98;97575.76;329080;113;1961901;-72
2021/04/07 02:29:38;;;;;;;7.66;4.21;;;;;;;5.99;69.83;97574.34;354640;113;1963018;-72
2021/04/07 02:30:45;;;;;;;8.22;3.54;;;;;;;5.96;69.97;97574.00;306857;113;2158405;-73
2021/04/07 02:31:50;;;;;;;9.21;4.41;;;;;;;5.92;70.17;97582.44;332827;113;1963103;-72
2021/04/07 02:32:56;;;;;;;7.24;3.84;;;;;;;5.88;70.21;97583.95;357671;111;1962983;-72
2021/04/07 02:34:01;;;;;;;8.23;4.60;;;;;;;5.79;70.22;97587.97;356247;113;1963983;-72
2021/04/07 02:35:08;;;;;;;7.84;3.87;;;;;;;5.70;70.43;97583.98;351770;113;1962002;-72
2021/04/07 02:36:14;;;;;;;7.33;3.63;;;;;;;5.65;70.90;97590.02;357239;113;1961937;-72
2021/04/07 02:37:20;;;;;;;7.71;3.93;;;;;;;5.66;70.87;97593.50;322049;113;2880008;-73
2021/04/07 02:38:25;;;;;;;6.74;3.37;;;;;;;5.65;70.91;97589.20;356185;113;1962006;-72
2021/04/07 02:39:31;;;;;;;8.38;3.70;;;;;;;5.67;70.90;97595.97;357350;113;1961994;-73
2021/04/07 02:40:37;;;;;;;9.37;4.06;;;;;;;5.72;70.55;97600.66;354010;112;1962119;-73
2021/04/07 02:41:43;;;;;;;6.53;3.35;;;;;;;5.69;70.80;97609.15;353510;111;1961954;-72
2021/04/07 02:42:50;;;;;;;7.80;3.83;;;;;;;5.62;71.40;97609.22;323068;112;2514933;-72
2021/04/07 02:43:55;;;;;;;7.41;3.61;;;;;;;5.66;71.13;97612.25;328569;113;1962026;-72
2021/04/07 02:45:00;;;;;;;6.86;3.32;;;;;;;5.64;71.23;97615.17;353169;113;1962063;-71
2021/04/07 02:46:06;;;;;;;7.74;3.66;;;;;;;5.69;71.11;97622.55;356446;113;1963974;-72
2021/04/07 02:47:11;;;;;;;9.88;3.72;;;;;;;5.75;70.81;97618.14;355950;113;1963976;-72
2021/04/07 02:48:18;;;;;;;7.23;3.43;;;;;;;5.78;70.74;97628.40;353408;113;1961961;-72
2021/04/07 02:49:25;;;;;;;6.82;3.43;;;;;;;5.80;70.59;97626.33;355833;111;1962061;-73
2021/04/07 02:50:30;;;;;;;7.13;3.21;;;;;;;5.75;70.64;97632.34;356246;113;1962000;-72
2021/04/07 02:51:35;;;;;;;6.45;3.40;;;;;;;5.73;70.75;97632.56;353861;113;1961959;-72
2021/04/07 02:52:41;;;;;;;6.16;3.42;;;;;;;5.73;70.73;97635.23;354390;113;1962036;-72
2021/04/07 02:53:47;;;;;;;7.61;3.46;;;;;;;5.77;70.40;97637.46;355923;113;1964868;-72
2021/04/07 02:54:52;;;;;;;6.90;3.49;;;;;;;5.77;70.33;97638.30;357354;111;1961976;-72
2021/04/07 02:55:58;;;;;;;6.76;3.58;;;;;;;5.72;70.53;97636.30;358853;111;1961977;-72
2021/04/07 02:57:06;;;;;;;8.31;3.80;;;;;;;5.69;70.75;97634.06;326476;113;2474954;-72
2021/04/07 02:58:12;;;;;;;8.57;3.73;;;;;;;5.73;70.69;97637.11;357025;113;1961979;-72
2021/04/07 02:59:18;;;;;;;8.28;4.49;;;;;;;5.66;70.81;97653.27;356859;113;1961923;-72
2021/04/07 03:00:25;;;;;;;8.03;3.77;;;;;;;5.69;70.67;97660.05;355479;113;1961977;-72
2021/04/07 03:01:30;;;;;;;7.48;3.84;;;;;;;5.68;70.94;97655.70;356080;113;1961956;-70
2021/04/07 03:02:36;;;;;;;7.83;3.28;;;;;;;5.69;71.00;97662.72;355841;112;1961968;-72
2021/04/07 03:03:41;;;;;;;6.69;2.97;;;;;;;5.72;70.90;97660.41;355820;112;1961924;-72
2021/04/07 03:04:46;;;;;;;7.16;3.57;;;;;;;5.79;70.58;97664.86;354678;113;1961896;-72
2021/04/07 03:05:52;;;;;;;6.30;3.34;;;;;;;5.77;70.42;97672.29;354923;113;1961968;-73
2021/04/07 03:06:58;;;;;;;7.63;3.54;;;;;;;5.70;70.26;97675.87;356718;113;1961914;-72
2021/04/07 03:08:04;;;;;;;5.84;2.95;;;;;;;5.70;70.38;97675.87;317564;110;2876047;-72
2021/04/07 03:09:10;;;;;;;7.19;3.12;;;;;;;5.62;70.42;97673.49;327819;115;1964048;-72
2021/04/07 03:10:16;;;;;;;6.69;2.84;;;;;;;5.59;70.48;97675.81;346766;114;1962036;-72
2021/04/07 03:11:22;;;;;;;6.08;2.83;;;;;;;5.57;70.44;97685.92;348967;114;1960858;-73
2021/04/07 03:12:28;;;;;;;5.46;2.73;;;;;;;5.59;69.71;97684.66;348458;114;1960684;-74
2021/04/07 03:13:34;;;;;;;6.59;2.83;;;;;;;5.57;69.91;97693.95;309948;116;2689755;-72
2021/04/07 03:14:40;;;;;;;5.13;2.67;;;;;;;5.48;70.38;97698.80;343526;115;1960841;-72
2021/04/07 03:15:45;;;;;;;7.09;2.84;;;;;;;5.49;70.09;97689.70;344825;114;1961937;-72
2021/04/07 03:16:51;;;;;;;4.60;2.38;;;;;;;5.37;70.37;97696.81;348480;114;1964000;-72
2021/04/07 03:17:57;;;;;;;6.21;2.57;;;;;;;5.32;70.63;97693.98;348610;114;1961953;-73
2021/04/07 03:19:03;;;;;;;6.34;2.56;;;;;;;5.28;70.79;97688.27;313997;114;2607964;-71
2021/04/07 03:20:10;;;;;;;5.03;2.66;;;;;;;5.29;70.75;97693.41;347057;114;1961932;-72
2021/04/07 03:21:15;;;;;;;4.88;2.58;;;;;;;5.29;70.68;97690.73;348133;114;1962019;-72
2021/04/07 03:22:20;;;;;;;5.22;2.33;;;;;;;5.34;70.47;97697.27;346676;114;1962036;-72
2021/04/07 03:23:25;;;;;;;5.83;2.39;;;;;;;5.33;70.50;97700.99;346962;116;1962885;-73
2021/04/07 03:24:32;;;;;;;5.06;2.14;;;;;;;5.24;70.89;97701.28;347594;116;1964048;-72
2021/04/07 03:25:37;;;;;;;4.66;1.99;;;;;;;5.25;70.33;97699.41;348400;114;1962038;-72
2021/04/07 03:26:43;;;;;;;3.41;2.21;;;;;;;5.23;70.28;97710.33;326353;114;2345979;-71
2021/04/07 03:27:48;;;;;;;4.30;1.86;;;;;;;5.15;70.34;97707.12;317019;117;1961996;-72
2021/04/07 03:28:54;;;;;;;3.25;1.50;;;;;;;5.15;70.60;97699.91;334277;120;1963019;-72
2021/04/07 03:29:59;;;;;;;3.89;2.21;;;;;;;5.20;70.34;97696.58;341458;117;1961842;-72
2021/04/07 03:31:05;;;;;;;3.58;1.91;;;;;;;5.20;70.54;97699.25;336991;117;1963930;-71
2021/04/07 03:32:10;;;;;;;3.52;1.89;;;;;;;5.21;70.56;97698.20;350053;115;1965021;-73
2021/04/07 03:33:20;;;;;;;4.51;1.79;;;;;;;5.23;70.42;97709.52;349579;115;1963012;-72
2021/04/07 03:34:27;;;;;;;5.36;2.20;;;;;;;5.23;70.42;97715.68;335276;119;1961926;-71
2021/04/07 03:35:33;;;;;;;3.04;1.62;;;;;;;5.13;70.86;97718.03;325384;119;2918961;-73
2021/04/07 03:36:39;;;;;;;5.27;1.87;;;;;;;5.19;70.57;97705.66;342389;117;1961996;-72
2021/04/07 03:37:45;;;;;;;4.87;1.67;;;;;;;5.16;70.86;97711.42;346860;114;1961915;-72
2021/04/07 03:38:50;;;;;;;4.28;2.05;;;;;;;5.16;70.77;97704.23;346251;114;1961811;-71
2021/04/07 03:39:55;;;;;;;3.49;1.94;;;;;;;5.16;70.64;97706.07;346445;114;1962017;-72
2021/04/07 03:41:02;;;;;;;4.11;1.96;;;;;;;5.18;70.69;97695.97;347226;114;1961934;-72
2021/04/07 03:42:08;;;;;;;4.34;2.26;;;;;;;5.17;70.66;97699.70;302980;113;2053691;-72
2021/04/07 03:43:15;;;;;;;4.65;2.20;;;;;;;5.24;70.38;97695.11;344965;114;1961917;-72
2021/04/07 03:44:22;;;;;;;3.69;1.66;;;;;;;5.21;70.54;97693.69;348582;114;1961932;-72
2021/04/07 03:45:27;;;;;;;2.94;1.53;;;;;;;5.24;70.49;97695.11;317156;114;1963011;-72
2021/04/07 03:46:34;;;;;;;3.54;1.80;;;;;;;5.27;70.25;97687.45;347976;116;1962053;-72
2021/04/07 03:47:40;;;;;;;3.54;1.57;;;;;;;5.23;70.42;97699.63;346902;114;1961945;-72
2021/04/07 03:48:45;;;;;;;2.88;1.60;;;;;;;5.20;70.37;97708.09;348150;114;1961937;-72
2021/04/07 03:49:51;;;;;;;3.99;2.11;;;;;;;5.18;70.29;97710.16;347296;114;1963996;-72
2021/04/07 03:50:59;;;;;;;3.17;1.65;;;;;;;5.21;70.08;97712.42;320747;114;2438937;-73
2021/04/07 03:52:04;;;;;;;3.40;1.57;;;;;;;5.25;69.62;97708.26;346380;114;1964046;-72
2021/04/07 03:53:12;;;;;;;2.86;1.59;;;;;;;5.19;69.69;97703.80;343634;114;1961909;-74
2021/04/07 03:54:18;;;;;;;3.07;2.10;;;;;;;5.18;69.73;97704.81;347645;114;1964964;-72
2021/04/07 03:55:23;;;;;;;4.10;1.93;;;;;;;5.11;69.86;97700.55;347722;114;1961973;-72
2021/04/07 03:56:31;;;;;;;4.71;2.24;;;;;;;5.12;69.86;97704.88;317700;114;2546008;-72
2021/04/07 03:57:36;;;;;;;4.91;2.23;;;;;;;5.03;69.97;97699.00;331265;114;1962021;-72
2021/04/07 03:58:42;;;;;;;4.34;2.36;;;;;;;5.00;69.90;97712.78;348146;114;1960933;-72
2021/04/07 03:59:48;;;;;;;2.81;1.82;;;;;;;4.94;70.00;97708.31;347989;112;1960688;-73
2021/04/07 04:00:54;;;;;;;4.09;2.27;;;;;;;4.78;70.34;97710.48;347262;114;1961984;-72
2021/04/07 04:02:00;;;;;;;4.08;1.76;;;;;;;4.67;70.90;97710.38;321366;114;2415024;-72
2021/04/07 04:03:07;;;;;;;3.12;1.69;;;;;;;4.63;70.87;97701.94;325130;114;1960939;-72
2021/04/07 04:04:13;;;;;;;5.35;1.96;;;;;;;4.59;70.97;97722.14;346194;114;1961941;-72
2021/04/07 04:05:20;;;;;;;3.17;1.73;;;;;;;4.55;71.49;97707.55;305897;114;2751065;-72
2021/04/07 04:06:27;;;;;;;4.58;1.96;;;;;;;4.53;71.72;97706.97;347880;114;1961955;-72
2021/04/07 04:07:32;;;;;;;4.31;1.63;;;;;;;4.61;71.27;97712.06;344422;114;1961846;-72
2021/04/07 04:08:38;;;;;;;4.00;1.58;;;;;;;4.63;71.13;97715.31;349442;113;1961965;-72
2021/04/07 04:09:44;;;;;;;4.81;1.78;;;;;;;4.69;70.93;97705.63;330506;113;2361938;-72
2021/04/07 04:10:51;;;;;;;4.64;2.11;;;;;;;4.43;70.70;97658.50;351667;113;1961890;-73
2021/04/07 04:11:57;;;;;;;3.59;1.58;;;;;;;4.78;70.62;97715.83;352649;113;1962941;-72
2021/04/07 04:13:04;;;;;;;3.89;1.67;;;;;;;4.83;70.66;97713.33;352713;113;1961964;-72
2021/04/07 04:14:09;;;;;;;3.73;1.61;;;;;;;4.78;70.73;97725.72;324623;114;1962950;-72
2021/04/07 04:15:16;;;;;;;5.27;1.61;;;;;;;4.75;70.72;97720.80;349171;114;1961935;-72
2021/04/07 04:16:22;;;;;;;2.89;1.46;;;;;;;4.76;70.81;97717.92;351259;114;1962005;-72
2021/04/07 04:17:29;;;;;;;2.93;1.55;;;;;;;4.83;70.71;97723.22;306984;114;2806087;-73
2021/04/07 04:18:34;;;;;;;3.72;2.02;;;;;;;4.92;70.42;97723.76;346838;114;1962933;-73
2021/04/07 04:19:41;;;;;;;4.12;1.73;;;;;;;4.95;70.37;97724.17;349446;114;1961905;-72
2021/04/07 04:20:47;;;;;;;3.32;1.54;;;;;;;4.98;70.18;97728.27;348837;114;1962049;-72
2021/04/07 04:21:53;;;;;;;2.30;1.39;;;;;;;4.97;70.35;97716.72;303056;114;2817980;-72
2021/04/07 04:22:59;;;;;;;3.28;1.83;;;;;;;4.97;69.89;97726.61;326874;114;1962009;-73
2021/04/07 04:24:04;;;;;;;3.39;1.53;;;;;;;5.04;69.94;97732.73;346406;114;1963018;-72
2021/04/07 04:25:13;;;;;;;3.31;1.86;;;;;;;5.10;69.75;97723.02;347362;114;1961986;-72
2021/04/07 04:26:19;;;;;;;3.64;1.53;;;;;;;5.04;69.55;97730.06;348660;114;1961752;-72
2021/04/07 04:27:24;;;;;;;2.99;1.48;;;;;;;4.99;69.62;97733.38;346282;114;1961913;-73
2021/04/07 04:28:30;;;;;;;3.12;1.56;;;;;;;4.89;69.55;97722.34;343332;116;1961929;-72
2021/04/07 04:29:36;;;;;;;3.65;1.95;;;;;;;4.83;69.89;97724.03;342832;116;1961973;-73
2021/04/07 04:30:42;;;;;;;2.37;1.61;;;;;;;4.71;69.91;97735.63;332041;114;1962977;-72
2021/04/07 04:31:47;;;;;;;5.24;1.76;;;;;;;4.61;70.48;97728.92;348718;114;1961957;-72
2021/04/07 04:32:53;;;;;;;3.72;1.96;;;;;;;4.46;70.76;97725.71;346512;114;1961966;-72
2021/04/07 04:34:00;;;;;;;2.73;1.86;;;;;;;4.42;70.59;97732.53;352497;114;1961960;-72
2021/04/07 04:35:07;;;;;;;4.39;1.75;;;;;;;4.37;71.25;97727.01;314078;114;2637945;-73
2021/04/07 04:36:16;;;;;;;4.04;2.06;;;;;;;4.37;71.29;97727.83;347334;115;1960965;-73
2021/04/07 04:37:32;;;;;;;4.93;2.28;;;;;;;4.41;71.26;97729.02;347207;116;1962931;-73
2021/04/07 04:38:38;;;;;;;3.72;1.78;;;;;;;4.49;71.18;97735.97;353906;111;1961925;-73
2021/04/07 04:39:44;;;;;;;4.96;2.15;;;;;;;4.51;71.49;97725.89;351693;113;1962055;-73
2021/04/07 04:40:50;;;;;;;4.22;1.50;;;;;;;4.58;71.28;97733.89;313988;110;2624793;-72
2021/04/07 04:41:56;;;;;;;4.28;1.66;;;;;;;4.60;71.05;97734.47;341648;113;1962015;-72
2021/04/07 04:43:01;;;;;;;2.72;1.49;;;;;;;4.63;70.66;97726.01;356223;112;1962046;-73
2021/04/07 04:44:06;;;;;;;4.96;1.81;;;;;;;4.62;71.12;97727.05;354379;113;1961944;-73
2021/04/07 04:45:12;;;;;;;3.47;1.64;;;;;;;4.55;71.35;97734.29;348639;114;1961972;-73
2021/04/07 04:46:19;;;;;;;3.72;1.98;;;;;;;4.60;71.25;97727.29;348508;114;1961971;-72
2021/04/07 04:47:25;;;;;;;3.46;1.74;;;;;;;4.61;71.20;97742.28;301733;114;2843002;-72
2021/04/07 04:48:30;;;;;;;3.56;1.69;;;;;;;4.68;70.85;97736.06;348861;114;1961985;-73
2021/04/07 04:49:36;;;;;;;3.88;1.83;;;;;;;4.67;70.64;97732.58;349652;114;1963030;-73
2021/04/07 04:50:42;;;;;;;2.97;1.36;;;;;;;4.72;70.60;97729.27;350638;114;1963959;-71
2021/04/07 04:51:48;;;;;;;8.61;2.13;;;;;;;4.76;70.53;97741.16;345505;115;1962012;-72
2021/04/07 04:52:54;;;;;;;3.23;1.29;;;;;;;4.74;70.15;97737.91;302746;115;2730039;-73
2021/04/07 04:54:00;;;;;;;4.16;1.21;;;;;;;4.52;70.68;97738.21;326083;114;1961932;-72
2021/04/07 04:55:07;;;;;;;3.14;1.90;;;;;;;4.63;70.85;97740.23;339961;116;1962042;-73
2021/04/07 04:56:13;;;;;;;3.61;1.59;;;;;;;4.66;70.73;97744.33;351139;114;1961881;-73
2021/04/07 04:57:19;;;;;;;3.36;1.58;;;;;;;4.62;70.95;97748.45;308262;114;2762953;-73
2021/04/07 04:58:25;;;;;;;4.05;1.58;;;;;;;4.63;70.90;97750.08;343757;115;1962062;-73
2021/04/07 04:59:33;;;;;;;4.62;2.65;;;;;;;4.59;71.05;97739.00;349372;114;1962000;-72
2021/04/07 05:00:39;;;;;;;2.68;1.52;;;;;;;4.53;71.31;97739.88;321169;116;1961922;-73
2021/04/07 05:01:44;;;;;;;1.88;1.19;;;;;;;4.57;71.08;97741.06;340061;116;1963026;-72
2021/04/07 05:02:50;;;;;;;4.91;1.14;;;;;;;4.60;70.91;97740.66;350050;116;1961944;-72
2021/04/07 05:03:55;;;;;;;1.99;1.17;;;;;;;4.55;70.53;97751.17;357613;110;1961825;-72
2021/04/07 05:05:00;;;;;;;2.52;1.39;;;;;;;4.48;70.82;97741.55;351705;112;1960816;-73
2021/04/07 05:06:06;;;;;;;3.46;1.63;;;;;;;4.41;70.89;97750.41;355922;112;1962107;-73
2021/04/07 05:07:11;;;;;;;3.56;1.43;;;;;;;4.46;71.13;97744.42;358980;110;1960992;-73